Time;durP1;ratioP1;P1;durP2;ratioP2;P2;SDS_P1;SDS_P2;PMS_P1;PMS_P2;Temp;Humidity;BMP_temperature;BMP_pressure;BME280_temperature;BME280_humidity;BME280_pressure;Samples;Min_cycle;Max_cycle;Signal;HPM_P1;HPM_P2
2023/07/10 00:01:01;;;;;;;3.63;1.25;;;25.00;1.00;;;;;;4916169;29;20580;-51
2023/07/10 00:03:28;;;;;;;2.08;1.20;;;25.00;1.00;;;;;;4916477;29;20408;-50
2023/07/10 00:06:00;;;;;;;1.33;0.68;;;25.00;1.00;;;;;;4915956;29;20072;-53
2023/07/10 00:08:27;;;;;;;2.13;0.85;;;25.00;1.00;;;;;;4930306;29;20046;-49
2023/07/10 00:10:54;;;;;;;3.10;1.17;;;25.00;1.00;;;;;;4934966;29;20040;-51
2023/07/10 00:13:21;;;;;;;2.65;0.73;;;25.00;1.00;;;;;;4920687;29;20511;-51
2023/07/10 00:15:53;;;;;;;3.95;2.03;;;25.00;1.00;;;;;;4915711;29;20052;-53
2023/07/10 00:18:22;;;;;;;2.70;0.93;;;25.00;1.00;;;;;;4915992;29;20049;-53
2023/07/10 00:20:49;;;;;;;2.85;0.98;;;25.00;1.00;;;;;;4915747;29;20052;-50
2023/07/10 00:23:17;;;;;;;1.92;1.33;;;24.90;1.00;;;;;;4915931;29;20055;-53
2023/07/10 00:25:44;;;;;;;1.75;0.90;;;24.90;1.00;;;;;;4915759;29;20046;-51
2023/07/10 00:28:15;;;;;;;1.70;0.88;;;24.90;1.00;;;;;;4915812;29;20493;-49
2023/07/10 00:30:45;;;;;;;2.05;1.10;;;24.90;1.00;;;;;;4915816;29;20115;-50
2023/07/10 00:33:14;;;;;;;2.03;0.80;;;24.90;1.00;;;;;;4916836;29;20086;-52
2023/07/10 00:35:42;;;;;;;2.08;0.95;;;24.90;1.00;;;;;;4915591;29;20074;-51
2023/07/10 00:38:19;;;;;;;2.67;1.58;;;24.90;1.00;;;;;;4914452;29;20059;-54
2023/07/10 00:40:47;;;;;;;1.75;0.95;;;24.90;1.00;;;;;;4915734;29;20233;-53
2023/07/10 00:43:14;;;;;;;3.47;0.90;;;24.90;1.00;;;;;;4915643;29;20048;-53
2023/07/10 00:45:40;;;;;;;1.80;0.75;;;24.90;1.00;;;;;;4914023;29;20051;-49
2023/07/10 00:48:16;;;;;;;2.00;0.90;;;24.90;1.00;;;;;;4914161;29;20468;-49
2023/07/10 00:50:48;;;;;;;4.47;1.08;;;24.90;1.00;;;;;;4914301;29;20415;-53
2023/07/10 00:53:29;;;;;;;2.47;1.10;;;24.90;1.00;;;;;;4915715;29;20044;-49
2023/07/10 00:56:00;;;;;;;2.88;0.95;;;24.90;1.00;;;;;;4914174;29;20048;-49
2023/07/10 00:58:39;;;;;;;1.93;0.87;;;24.90;1.00;;;;;;4915718;29;20444;-49
2023/07/10 01:01:15;;;;;;;1.88;1.15;;;24.90;1.00;;;;;;4915376;29;20436;-50
2023/07/10 01:03:44;;;;;;;1.88;0.85;;;24.90;1.00;;;;;;4914122;29;20052;-49
2023/07/10 01:06:28;;;;;;;1.55;0.88;;;24.90;1.00;;;;;;4926981;29;20440;-51
2023/07/10 01:09:04;;;;;;;2.60;1.00;;;24.80;1.00;;;;;;4934184;29;20134;-48
2023/07/10 01:11:37;;;;;;;3.00;0.70;;;24.80;1.00;;;;;;4920051;29;20461;-49
2023/07/10 01:14:08;;;;;;;1.85;0.82;;;24.80;1.00;;;;;;4914388;29;20040;-50
2023/07/10 01:16:36;;;;;;;2.92;0.98;;;24.80;1.00;;;;;;4913866;29;20059;-48
2023/07/10 01:19:10;;;;;;;1.75;1.10;;;24.80;1.00;;;;;;4913947;29;20496;-48
2023/07/10 01:21:38;;;;;;;3.95;1.30;;;24.80;1.00;;;;;;4914113;29;20060;-48
2023/07/10 01:24:06;;;;;;;2.63;1.30;;;24.80;1.00;;;;;;4915462;29;20043;-51
2023/07/10 01:26:36;;;;;;;2.97;1.05;;;24.80;1.00;;;;;;4913798;29;20536;-50
2023/07/10 01:29:13;;;;;;;2.20;0.65;;;24.80;1.00;;;;;;4932212;29;20151;-48
2023/07/10 01:31:41;;;;;;;1.90;1.00;;;24.80;1.00;;;;;;4934398;29;20043;-48
2023/07/10 01:34:11;;;;;;;2.85;0.85;;;24.80;1.00;;;;;;4921722;29;20052;-49
2023/07/10 01:36:40;;;;;;;1.67;0.82;;;24.80;1.00;;;;;;4913807;29;20116;-48
2023/07/10 01:39:10;;;;;;;4.30;1.15;;;24.80;1.00;;;;;;4913721;29;20040;-48
2023/07/10 01:41:39;;;;;;;2.35;0.98;;;24.80;1.00;;;;;;4915270;29;20131;-49
2023/07/10 01:44:13;;;;;;;3.17;1.35;;;24.80;1.00;;;;;;4915182;29;20036;-52
2023/07/10 01:46:39;;;;;;;2.78;0.73;;;24.80;1.00;;;;;;4915010;29;20044;-49
2023/07/10 01:49:06;;;;;;;1.15;0.60;;;24.80;1.00;;;;;;4914951;29;20409;-50
2023/07/10 01:51:34;;;;;;;2.40;1.02;;;24.80;1.00;;;;;;4914057;29;20139;-48
2023/07/10 01:54:05;;;;;;;1.20;0.50;;;24.80;1.00;;;;;;4913818;29;20130;-48
2023/07/10 01:56:33;;;;;;;1.77;1.13;;;24.80;1.00;;;;;;4913765;29;20100;-48
2023/07/10 01:58:59;;;;;;;2.72;1.08;;;24.80;1.00;;;;;;4915182;29;20056;-48
2023/07/10 02:01:26;;;;;;;1.30;0.60;;;24.80;1.00;;;;;;4917350;29;20066;-49
2023/07/10 02:03:53;;;;;;;3.67;0.95;;;24.80;1.00;;;;;;4918333;29;20040;-48
2023/07/10 02:06:21;;;;;;;2.35;1.20;;;24.80;1.00;;;;;;4917028;29;20052;-48
2023/07/10 02:08:48;;;;;;;1.58;0.88;;;24.80;1.00;;;;;;4918389;29;20051;-50
2023/07/10 02:11:15;;;;;;;3.70;0.70;;;24.80;1.00;;;;;;4938033;23;20047;-49
2023/07/10 02:13:42;;;;;;;3.03;1.00;;;24.70;1.00;;;;;;4955053;29;20716;-48
2023/07/10 02:16:12;;;;;;;1.65;0.70;;;24.70;1.00;;;;;;4954962;29;20066;-49
2023/07/10 02:18:39;;;;;;;1.85;0.98;;;24.80;1.00;;;;;;4956047;29;20047;-48
2023/07/10 02:21:06;;;;;;;1.75;0.70;;;24.70;1.00;;;;;;4947805;29;20079;-49
2023/07/10 02:23:37;;;;;;;1.10;0.52;;;24.70;1.00;;;;;;4936087;29;20056;-48
2023/07/10 02:26:05;;;;;;;3.13;0.77;;;24.70;1.00;;;;;;4936761;29;20040;-48
2023/07/10 02:28:32;;;;;;;1.83;0.88;;;24.70;1.00;;;;;;4936950;29;20048;-48
2023/07/10 02:31:05;;;;;;;3.33;1.00;;;24.70;1.00;;;;;;4937285;29;20492;-49
2023/07/10 02:33:33;;;;;;;2.13;0.70;;;24.70;1.00;;;;;;4935634;29;20059;-48
2023/07/10 02:36:00;;;;;;;2.55;1.33;;;24.70;1.00;;;;;;4936822;29;20044;-50
2023/07/10 02:38:28;;;;;;;2.58;1.20;;;24.70;1.00;;;;;;4935604;29;20299;-48
2023/07/10 02:40:56;;;;;;;1.08;0.70;;;24.70;1.00;;;;;;4936781;29;20071;-49
2023/07/10 02:43:26;;;;;;;1.40;0.80;;;24.70;1.00;;;;;;4935889;29;20419;-48
2023/07/10 02:45:52;;;;;;;3.15;0.73;;;24.70;1.00;;;;;;4935167;29;20048;-48
2023/07/10 02:48:19;;;;;;;2.38;0.95;;;24.70;1.00;;;;;;4935539;29;20571;-48
2023/07/10 02:50:46;;;;;;;3.28;0.70;;;24.70;1.00;;;;;;4936869;29;20046;-48
2023/07/10 02:53:13;;;;;;;2.40;1.02;;;24.70;1.00;;;;;;4927812;29;20044;-48
2023/07/10 02:55:42;;;;;;;1.42;0.82;;;24.60;1.00;;;;;;4936657;29;20039;-49
2023/07/10 02:58:09;;;;;;;3.00;1.23;;;24.60;1.00;;;;;;4940890;29;20056;-51
2023/07/10 03:00:36;;;;;;;1.90;0.60;;;24.60;1.00;;;;;;4939821;29;20138;-48
2023/07/10 03:03:06;;;;;;;2.65;0.80;;;24.60;1.00;;;;;;4941069;29;20036;-51
2023/07/10 03:05:33;;;;;;;1.85;0.60;;;24.60;1.00;;;;;;4940822;29;20477;-48
2023/07/10 03:07:59;;;;;;;2.53;1.20;;;24.70;1.00;;;;;;4938695;29;20078;-50
2023/07/10 03:10:26;;;;;;;1.63;0.95;;;24.60;1.00;;;;;;4937308;29;20095;-49
2023/07/10 03:12:53;;;;;;;2.45;1.05;;;24.70;1.00;;;;;;4936984;29;20063;-48
2023/07/10 03:15:22;;;;;;;2.67;1.02;;;24.60;1.00;;;;;;4938038;29;20055;-47
2023/07/10 03:17:49;;;;;;;1.65;0.73;;;24.60;1.00;;;;;;4940414;29;20047;-48
2023/07/10 03:20:16;;;;;;;1.75;0.60;;;24.60;1.00;;;;;;4939018;29;20043;-48
2023/07/10 03:22:42;;;;;;;2.05;1.00;;;24.60;1.00;;;;;;4938940;29;20051;-48
2023/07/10 03:25:09;;;;;;;3.40;0.95;;;24.60;1.00;;;;;;4958617;29;20047;-47
2023/07/10 03:27:36;;;;;;;1.60;0.80;;;24.60;1.00;;;;;;4959509;29;20127;-47
2023/07/10 03:30:03;;;;;;;1.95;0.82;;;24.60;1.00;;;;;;4956844;29;20090;-47
2023/07/10 03:32:30;;;;;;;4.72;0.90;;;24.60;1.00;;;;;;4953716;28;20039;-48
2023/07/10 03:34:58;;;;;;;3.00;0.85;;;24.60;1.00;;;;;;4954508;29;20043;-48
2023/07/10 03:37:25;;;;;;;1.73;0.70;;;24.60;1.00;;;;;;4954473;29;20042;-48
2023/07/10 03:39:52;;;;;;;2.35;0.68;;;24.60;1.00;;;;;;4954554;29;20114;-49
2023/07/10 03:42:19;;;;;;;2.50;1.08;;;24.60;1.00;;;;;;4954876;28;20114;-49
2023/07/10 03:44:46;;;;;;;3.25;0.98;;;24.60;1.00;;;;;;4954589;29;20031;-50
2023/07/10 03:47:13;;;;;;;2.60;0.98;;;24.60;1.00;;;;;;4954562;29;20504;-48
2023/07/10 03:49:39;;;;;;;3.17;1.00;;;24.60;1.00;;;;;;4954465;29;20046;-50
2023/07/10 03:52:07;;;;;;;2.63;0.70;;;24.50;1.00;;;;;;4954291;28;20415;-47
2023/07/10 03:54:34;;;;;;;1.75;0.70;;;24.50;1.00;;;;;;4954318;29;20126;-50
2023/07/10 03:57:01;;;;;;;2.45;1.02;;;24.50;1.00;;;;;;4954040;29;20496;-47
2023/07/10 03:59:28;;;;;;;3.00;0.70;;;24.50;1.00;;;;;;4954329;29;20050;-47
2023/07/10 04:01:55;;;;;;;2.55;0.73;;;24.50;1.00;;;;;;4954243;28;20102;-47
2023/07/10 04:04:22;;;;;;;3.33;0.77;;;24.50;1.00;;;;;;4954264;29;20043;-48
2023/07/10 04:06:48;;;;;;;2.88;1.00;;;24.50;1.00;;;;;;4954079;29;20047;-49
2023/07/10 04:09:18;;;;;;;1.58;0.52;;;24.50;1.00;;;;;;4954114;29;20061;-49
2023/07/10 04:11:45;;;;;;;1.75;0.77;;;24.50;1.00;;;;;;4944883;28;20404;-48
2023/07/10 04:14:12;;;;;;;2.08;0.70;;;24.50;1.00;;;;;;4932197;29;20520;-49
2023/07/10 04:16:39;;;;;;;1.88;0.57;;;24.50;1.00;;;;;;4934211;29;20044;-47
2023/07/10 04:19:07;;;;;;;4.45;1.00;;;24.50;1.00;;;;;;4936428;29;20071;-48
2023/07/10 04:21:34;;;;;;;3.13;0.73;;;24.50;1.00;;;;;;4945711;28;20050;-50
2023/07/10 04:24:04;;;;;;;4.13;0.98;;;24.50;1.00;;;;;;4941712;29;20044;-49
2023/07/10 04:26:33;;;;;;;6.53;1.40;;;24.50;1.00;;;;;;4931762;28;20132;-49
2023/07/10 04:29:02;;;;;;;4.15;1.15;;;24.40;1.00;;;;;;4942867;29;20159;-53
2023/07/10 04:31:30;;;;;;;3.55;0.95;;;24.40;1.00;;;;;;4947428;28;20381;-49
2023/07/10 04:33:57;;;;;;;11.82;2.35;;;24.40;1.00;;;;;;4950478;28;20113;-49
2023/07/10 04:36:25;;;;;;;16.42;1.73;;;24.40;1.00;;;;;;4937795;29;20047;-48
2023/07/10 04:38:52;;;;;;;9.65;2.00;;;24.40;1.00;;;;;;4943063;29;20130;-47
2023/07/10 04:41:23;;;;;;;7.80;1.75;;;24.40;1.00;;;;;;4941970;29;20040;-47
2023/07/10 04:43:50;;;;;;;6.55;1.75;;;24.40;1.00;;;;;;4934767;29;20452;-51
2023/07/10 04:46:18;;;;;;;7.55;1.25;;;24.30;1.00;;;;;;4933201;29;20050;-49
2023/07/10 04:48:46;;;;;;;4.88;1.38;;;24.40;1.00;;;;;;4933180;29;20047;-49
2023/07/10 04:51:14;;;;;;;5.53;0.95;;;24.40;1.00;;;;;;4934394;29;20448;-48
2023/07/10 04:53:41;;;;;;;4.15;1.35;;;24.30;1.00;;;;;;4933426;29;20039;-49
2023/07/10 04:56:11;;;;;;;5.10;1.48;;;24.30;1.00;;;;;;4934349;29;20114;-50
2023/07/10 04:59:04;;;;;;;4.40;1.30;;;24.30;1.00;;;;;;4934440;29;20452;-48
2023/07/10 05:01:35;;;;;;;7.07;1.15;;;24.40;1.00;;;;;;4931982;29;20126;-48
2023/07/10 05:04:02;;;;;;;4.10;0.90;;;24.40;1.00;;;;;;4932876;29;20051;-50
2023/07/10 05:06:29;;;;;;;3.88;1.17;;;24.30;1.00;;;;;;4941837;29;20039;-49
2023/07/10 05:08:58;;;;;;;13.50;1.83;;;24.30;1.00;;;;;;4950377;29;20039;-52
2023/07/10 05:11:30;;;;;;;3.60;1.00;;;24.30;1.00;;;;;;4951424;28;20043;-48
2023/07/10 05:13:58;;;;;;;5.10;1.02;;;24.30;1.00;;;;;;4952556;29;20487;-47
2023/07/10 05:16:25;;;;;;;4.75;1.42;;;24.30;1.00;;;;;;4952525;29;20106;-48
2023/07/10 05:18:52;;;;;;;5.85;1.38;;;24.30;1.00;;;;;;4953178;29;20495;-50
2023/07/10 05:21:19;;;;;;;7.53;0.90;;;24.30;1.00;;;;;;4952374;28;20048;-47
2023/07/10 05:23:46;;;;;;;6.35;1.38;;;24.30;1.00;;;;;;4952507;29;20073;-48
2023/07/10 05:26:16;;;;;;;3.13;0.90;;;24.30;1.00;;;;;;4952142;29;20043;-47
2023/07/10 05:28:42;;;;;;;7.63;1.25;;;24.30;1.00;;;;;;4952552;29;20046;-48
2023/07/10 05:31:11;;;;;;;4.93;1.27;;;24.30;1.00;;;;;;4952298;28;20083;-48
2023/07/10 05:33:39;;;;;;;7.75;1.30;;;24.30;1.00;;;;;;4953716;28;20043;-47
2023/07/10 05:36:10;;;;;;;4.70;1.30;;;24.30;1.00;;;;;;4955601;29;20039;-49
2023/07/10 05:38:37;;;;;;;13.20;1.80;;;24.30;1.00;;;;;;4955723;28;20561;-48
2023/07/10 05:41:04;;;;;;;6.85;1.80;;;24.30;1.00;;;;;;4955510;28;20097;-48
2023/07/10 05:43:33;;;;;;;4.97;1.15;;;24.30;1.00;;;;;;4955580;29;20045;-47
2023/07/10 05:46:00;;;;;;;3.95;1.38;;;24.30;1.00;;;;;;4955385;29;20407;-47
2023/07/10 05:48:28;;;;;;;4.07;0.93;;;24.30;1.00;;;;;;4955560;29;20058;-47
2023/07/10 05:50:56;;;;;;;5.32;1.85;;;24.30;1.00;;;;;;4955415;28;20058;-49
2023/07/10 05:53:23;;;;;;;2.88;0.85;;;24.30;1.00;;;;;;4955391;29;20039;-48
2023/07/10 05:55:52;;;;;;;1.80;0.90;;;24.30;1.00;;;;;;4948514;29;20106;-48
2023/07/10 05:58:22;;;;;;;7.75;1.10;;;24.30;1.00;;;;;;4936128;29;20502;-47
2023/07/10 06:00:52;;;;;;;3.90;1.17;;;24.30;1.00;;;;;;4936223;29;20445;-50
2023/07/10 06:03:19;;;;;;;3.80;1.02;;;24.30;1.00;;;;;;4936201;29;20107;-48
2023/07/10 06:05:57;;;;;;;2.25;0.70;;;24.30;1.00;;;;;;4936011;29;20071;-48
2023/07/10 06:08:25;;;;;;;3.97;1.25;;;24.30;1.00;;;;;;4928395;29;20040;-48
2023/07/10 06:10:52;;;;;;;7.50;0.87;;;24.30;1.00;;;;;;4899725;29;1069158;-48
2023/07/10 06:13:19;;;;;;;8.18;1.40;;;24.30;1.00;;;;;;4937296;29;20282;-47
2023/07/10 06:15:49;;;;;;;3.38;1.15;;;24.30;1.00;;;;;;4937174;29;20052;-47
2023/07/10 06:18:17;;;;;;;4.45;0.82;;;24.30;1.00;;;;;;4936920;29;20047;-48
2023/07/10 06:20:56;;;;;;;3.80;1.05;;;24.30;1.00;;;;;;4937013;29;20043;-49
2023/07/10 06:23:24;;;;;;;3.20;1.20;;;24.40;1.00;;;;;;4936937;29;20043;-48
2023/07/10 06:25:52;;;;;;;3.85;0.90;;;24.40;1.00;;;;;;4936718;29;20052;-50
2023/07/10 06:28:20;;;;;;;3.55;1.27;;;24.40;1.00;;;;;;4936881;29;20122;-49
2023/07/10 06:31:13;;;;;;;3.67;1.05;;;24.40;1.00;;;;;;4936801;29;20044;-49
2023/07/10 06:33:40;;;;;;;;;;;24.40;1.00;;;;;;4934883;29;20058;-49
2023/07/10 06:36:07;;;;;;;5.45;1.40;;;24.40;1.00;;;;;;4936597;29;19923;-48
2023/07/10 06:38:35;;;;;;;4.93;1.00;;;24.40;1.00;;;;;;4936807;29;20044;-51
2023/07/10 06:41:02;;;;;;;6.32;1.42;;;24.40;1.00;;;;;;4936487;29;20083;-49
2023/07/10 06:43:29;;;;;;;5.80;1.10;;;24.40;1.00;;;;;;4936657;29;20079;-48
2023/07/10 06:45:56;;;;;;;6.60;1.33;;;24.40;1.00;;;;;;4935937;29;20044;-51
2023/07/10 06:48:24;;;;;;;2.92;1.33;;;24.40;1.00;;;;;;4936600;29;20452;-51
2023/07/10 06:50:55;;;;;;;2.25;0.80;;;24.40;1.00;;;;;;4936356;29;20046;-53
2023/07/10 06:53:24;;;;;;;3.72;1.20;;;24.40;1.00;;;;;;4936504;29;20074;-49
2023/07/10 06:55:56;;;;;;;3.20;1.20;;;24.50;1.00;;;;;;4936268;29;20043;-52
2023/07/10 06:58:23;;;;;;;4.57;1.30;;;24.40;1.00;;;;;;4936292;29;20047;-50
2023/07/10 07:00:51;;;;;;;2.25;1.05;;;24.50;1.00;;;;;;4936168;29;20040;-53
2023/07/10 07:03:18;;;;;;;3.45;0.98;;;24.50;1.00;;;;;;4936165;29;20040;-53
2023/07/10 07:05:45;;;;;;;4.07;0.90;;;24.50;1.00;;;;;;4936098;29;20119;-48
2023/07/10 07:08:13;;;;;;;3.78;1.27;;;24.50;1.00;;;;;;4936045;29;20488;-48
2023/07/10 07:10:43;;;;;;;6.70;1.20;;;24.50;1.00;;;;;;4935903;29;20050;-48
2023/07/10 07:13:11;;;;;;;5.60;1.50;;;24.50;1.00;;;;;;4936027;29;20035;-50
2023/07/10 07:15:37;;;;;;;5.25;1.40;;;24.50;1.00;;;;;;4935727;29;20039;-48
2023/07/10 07:18:05;;;;;;;3.25;1.17;;;24.50;1.00;;;;;;4935978;29;20040;-50
2023/07/10 07:20:32;;;;;;;4.68;1.42;;;24.50;1.00;;;;;;4935879;29;20040;-53
2023/07/10 07:23:00;;;;;;;3.53;0.98;;;24.50;1.00;;;;;;4935911;29;20047;-48
2023/07/10 07:25:30;;;;;;;4.57;1.23;;;24.50;1.00;;;;;;4935887;29;20050;-49
2023/07/10 07:27:59;;;;;;;3.75;1.15;;;24.50;1.00;;;;;;4935823;29;20031;-51
2023/07/10 07:30:27;;;;;;;2.88;1.17;;;24.60;1.00;;;;;;4935738;29;20367;-48
2023/07/10 07:32:56;;;;;;;4.32;1.50;;;24.60;1.00;;;;;;4936206;29;20439;-49
2023/07/10 07:35:23;;;;;;;4.82;1.13;;;24.60;1.00;;;;;;4935457;29;20040;-48
2023/07/10 07:37:50;;;;;;;2.88;1.33;;;24.60;1.00;;;;;;4935720;29;20047;-47
2023/07/10 07:40:17;;;;;;;3.35;0.93;;;24.60;1.00;;;;;;4935408;29;20047;-50
2023/07/10 07:42:46;;;;;;;3.28;0.82;;;24.60;1.00;;;;;;4935927;29;20044;-49
2023/07/10 07:45:14;;;;;;;6.70;1.45;;;24.60;1.00;;;;;;4935362;29;20123;-49
2023/07/10 07:47:41;;;;;;;4.18;1.00;;;24.60;1.00;;;;;;4935304;29;20040;-48
2023/07/10 07:50:09;;;;;;;6.28;1.15;;;24.60;1.00;;;;;;4935320;29;20079;-49
2023/07/10 07:52:36;;;;;;;4.22;1.73;;;24.60;1.00;;;;;;4935077;29;20127;-51
2023/07/10 07:55:04;;;;;;;3.35;1.45;;;24.60;1.00;;;;;;4935125;29;20067;-50
2023/07/10 07:57:31;;;;;;;10.18;1.45;;;24.60;1.00;;;;;;4934612;29;20082;-49
2023/07/10 07:59:59;;;;;;;6.80;1.50;;;24.60;1.00;;;;;;4935352;29;20067;-48
2023/07/10 08:02:26;;;;;;;5.57;1.85;;;24.60;1.00;;;;;;4935309;29;20071;-47
2023/07/10 08:04:53;;;;;;;5.75;2.28;;;24.60;1.00;;;;;;4935079;29;20040;-50
2023/07/10 08:07:20;;;;;;;7.28;1.63;;;24.60;1.00;;;;;;4935076;29;20044;-51
2023/07/10 08:09:47;;;;;;;7.00;1.63;;;24.60;1.00;;;;;;4935399;29;20046;-48
2023/07/10 08:12:14;;;;;;;6.90;1.27;;;24.60;1.00;;;;;;4934728;29;20095;-49
2023/07/10 08:14:41;;;;;;;4.47;1.90;;;24.60;1.00;;;;;;4935149;29;20510;-48
2023/07/10 08:17:08;;;;;;;5.57;1.50;;;24.60;1.00;;;;;;4934688;29;20054;-50
2023/07/10 08:19:35;;;;;;;7.05;1.23;;;24.60;1.00;;;;;;4935028;29;20058;-49
2023/07/10 08:22:02;;;;;;;2.85;1.33;;;24.70;1.00;;;;;;4934889;29;20356;-48
2023/07/10 08:24:29;;;;;;;5.72;1.10;;;24.70;1.00;;;;;;4934976;29;20043;-48
2023/07/10 08:26:56;;;;;;;5.32;1.10;;;24.70;1.00;;;;;;4934943;29;20123;-51
2023/07/10 08:29:34;;;;;;;5.53;1.33;;;24.70;1.00;;;;;;4934766;29;20491;-49
2023/07/10 08:32:01;;;;;;;3.58;1.05;;;24.70;1.00;;;;;;4934659;29;20467;-49
2023/07/10 08:34:29;;;;;;;6.10;2.17;;;24.70;1.00;;;;;;4934964;29;20040;-50
2023/07/10 08:36:58;;;;;;;5.18;1.10;;;24.70;1.00;;;;;;4934536;29;20039;-48
2023/07/10 08:39:25;;;;;;;6.07;1.48;;;24.70;1.00;;;;;;4934754;29;20588;-49
2023/07/10 08:42:00;;;;;;;4.72;1.27;;;24.70;1.00;;;;;;4934527;29;20050;-52
2023/07/10 08:44:34;;;;;;;3.28;1.38;;;24.70;1.00;;;;;;4934536;29;20044;-48
2023/07/10 08:47:18;;;;;;;7.47;1.10;;;24.70;1.00;;;;;;4934305;29;20364;-50
2023/07/10 08:49:58;;;;;;;3.60;1.63;;;24.70;1.00;;;;;;4928457;29;20036;-48
2023/07/10 08:52:40;;;;;;;5.75;1.88;;;24.70;1.00;;;;;;4934505;29;20048;-51
2023/07/10 08:55:12;;;;;;;6.65;2.83;;;24.70;1.00;;;;;;4934520;29;20039;-48
2023/07/10 08:57:43;;;;;;;4.43;1.05;;;24.70;1.00;;;;;;4934417;29;20122;-50
2023/07/10 09:00:14;;;;;;;5.65;1.58;;;24.70;1.00;;;;;;4934503;29;20055;-49
2023/07/10 09:02:48;;;;;;;4.00;1.00;;;24.70;1.00;;;;;;4934352;29;20114;-51
2023/07/10 09:05:25;;;;;;;2.67;1.30;;;24.70;1.00;;;;;;4934282;29;20452;-47
2023/07/10 09:07:54;;;;;;;9.32;1.85;;;24.70;1.00;;;;;;4936099;29;20181;-47
2023/07/10 09:10:41;;;;;;;8.10;2.22;;;24.70;1.00;;;;;;4938104;29;20531;-48
2023/07/10 09:13:34;;;;;;;2.70;0.95;;;24.70;1.00;;;;;;4938370;29;20054;-49
2023/07/10 09:16:01;;;;;;;4.43;1.55;;;24.70;1.00;;;;;;4930637;29;20051;-49
2023/07/10 09:18:53;;;;;;;4.25;1.52;;;24.70;1.00;;;;;;4938171;29;20134;-50
2023/07/10 09:21:25;;;;;;;3.33;1.60;;;24.70;1.00;;;;;;4938156;29;20066;-50
2023/07/10 09:23:52;;;;;;;3.60;1.77;;;24.70;1.00;;;;;;4938159;29;20044;-49
2023/07/10 09:26:24;;;;;;;5.20;1.13;;;24.70;1.00;;;;;;4936572;29;20087;-49
2023/07/10 09:28:54;;;;;;;4.15;1.20;;;24.70;1.00;;;;;;4938135;29;20064;-49
2023/07/10 09:31:40;;;;;;;4.72;1.40;;;24.80;1.00;;;;;;4937826;29;20043;-48
2023/07/10 09:34:10;;;;;;;3.88;1.10;;;24.80;1.00;;;;;;4937826;29;20412;-49
2023/07/10 09:36:37;;;;;;;3.70;1.20;;;24.80;1.00;;;;;;4937658;29;20647;-48
2023/07/10 09:39:04;;;;;;;6.53;2.17;;;24.80;1.00;;;;;;4937977;29;20500;-50
2023/07/10 09:41:31;;;;;;;8.48;1.42;;;24.80;1.00;;;;;;4937566;29;20067;-51
2023/07/10 09:44:11;;;;;;;3.20;1.13;;;24.80;1.00;;;;;;4937821;29;20452;-48
2023/07/10 09:46:38;;;;;;;2.97;1.02;;;24.80;1.00;;;;;;4929836;29;20399;-50
2023/07/10 09:49:23;;;;;;;7.38;1.45;;;24.80;1.00;;;;;;4937673;29;20484;-48
2023/07/10 09:51:57;;;;;;;4.90;1.45;;;24.80;1.00;;;;;;4937826;29;20357;-47
2023/07/10 09:54:36;;;;;;;6.72;1.10;;;24.80;1.00;;;;;;4937487;29;20047;-48
2023/07/10 09:57:11;;;;;;;3.63;0.93;;;24.80;1.00;;;;;;4937393;29;20063;-48
2023/07/10 09:59:38;;;;;;;6.20;1.40;;;24.80;1.00;;;;;;4937601;29;20047;-49
2023/07/10 10:02:46;;;;;;;6.88;1.48;;;24.80;1.00;;;;;;4937326;29;20074;-49
2023/07/10 10:05:19;;;;;;;2.85;0.93;;;24.80;1.00;;;;;;4925103;29;20554;-49
2023/07/10 10:08:03;;;;;;;5.35;1.13;;;24.80;1.00;;;;;;4956566;29;20062;-50
2023/07/10 10:10:33;;;;;;;4.25;1.10;;;24.80;1.00;;;;;;4956282;28;20043;-49
2023/07/10 10:13:19;;;;;;;4.43;1.20;;;24.80;1.00;;;;;;4956324;29;20498;-48
2023/07/10 10:15:54;;;;;;;5.38;1.30;;;24.80;1.00;;;;;;4956836;29;20596;-48
2023/07/10 10:18:44;;;;;;;4.40;1.40;;;24.80;1.00;;;;;;4956104;28;20164;-48
2023/07/10 10:21:14;;;;;;;6.18;1.25;;;24.80;1.00;;;;;;4956174;28;20039;-49
2023/07/10 10:23:44;;;;;;;4.97;1.30;;;24.80;1.00;;;;;;4956007;29;20058;-48
2023/07/10 10:26:26;;;;;;;4.40;1.20;;;24.80;1.00;;;;;;4955915;29;20578;-48
2023/07/10 10:29:14;;;;;;;2.35;1.02;;;24.80;1.00;;;;;;4956170;29;20236;-48
2023/07/10 10:31:51;;;;;;;3.90;1.58;;;24.80;1.00;;;;;;4955970;28;20122;-50
2023/07/10 10:34:37;;;;;;;7.10;0.90;;;24.80;1.00;;;;;;4955960;29;20051;-49
2023/07/10 10:37:26;;;;;;;4.85;0.95;;;24.80;1.00;;;;;;4955779;29;20039;-48
2023/07/10 10:40:04;;;;;;;2.78;1.10;;;24.80;1.00;;;;;;4955960;29;20392;-49
2023/07/10 10:42:49;;;;;;;4.03;0.95;;;24.80;1.00;;;;;;4954492;28;20556;-48
2023/07/10 10:45:34;;;;;;;3.92;1.30;;;24.80;1.00;;;;;;4955465;29;20499;-49
2023/07/10 10:48:19;;;;;;;5.32;1.13;;;24.80;1.00;;;;;;4955795;28;20098;-48
2023/07/10 10:50:54;;;;;;;3.17;1.17;;;24.80;1.00;;;;;;4955713;28;20554;-48
2023/07/10 10:54:00;;;;;;;4.47;1.52;;;24.80;1.00;;;;;;4955414;29;20084;-48
2023/07/10 10:56:43;;;;;;;3.80;1.15;;;24.80;1.00;;;;;;4925366;29;20530;-49
2023/07/10 10:59:37;;;;;;;2.60;1.00;;;24.80;1.00;;;;;;4955604;29;20098;-48
2023/07/10 11:02:31;;;;;;;3.08;1.02;;;24.80;1.00;;;;;;4955544;28;20078;-49
2023/07/10 11:05:28;;;;;;;5.40;1.10;;;24.80;1.00;;;;;;4955394;29;20043;-49
2023/07/10 11:07:59;;;;;;;2.85;1.05;;;24.80;1.00;;;;;;4941828;29;20051;-49
2023/07/10 11:10:32;;;;;;;3.20;1.15;;;24.80;1.00;;;;;;4955411;28;20403;-49
2023/07/10 11:12:59;;;;;;;3.65;1.08;;;24.80;1.00;;;;;;4955170;29;20035;-48
2023/07/10 11:15:28;;;;;;;6.10;2.03;;;24.80;1.00;;;;;;4955086;29;20039;-51
2023/07/10 11:17:57;;;;;;;3.72;1.15;;;24.80;1.00;;;;;;4955330;29;20051;-50
2023/07/10 11:20:26;;;;;;;5.88;1.52;;;24.80;1.00;;;;;;4953871;28;20043;-48
2023/07/10 11:22:56;;;;;;;5.00;1.20;;;24.80;1.00;;;;;;4955071;28;20054;-49
2023/07/10 11:25:33;;;;;;;2.72;1.13;;;24.80;1.00;;;;;;4954949;29;20081;-50
2023/07/10 11:28:25;;;;;;;2.83;1.30;;;24.80;1.00;;;;;;4954961;29;20456;-49
2023/07/10 11:31:30;;;;;;;5.60;1.67;;;24.80;1.00;;;;;;4954765;28;20083;-48
2023/07/10 11:34:06;;;;;;;4.43;0.98;;;24.80;1.00;;;;;;4955176;29;20420;-49
2023/07/10 11:36:33;;;;;;;6.63;0.95;;;24.80;1.00;;;;;;4954786;29;20047;-49
2023/07/10 11:39:05;;;;;;;7.22;1.85;;;24.80;1.00;;;;;;4954792;29;20058;-48
2023/07/10 11:41:38;;;;;;;3.65;1.35;;;24.80;1.00;;;;;;4954752;28;20051;-52
2023/07/10 11:44:14;;;;;;;5.22;1.60;;;24.80;1.00;;;;;;4954828;28;20074;-51
2023/07/10 11:47:04;;;;;;;3.33;0.90;;;24.80;1.00;;;;;;4954680;29;20551;-49
2023/07/10 11:49:34;;;;;;;5.00;1.15;;;24.80;1.00;;;;;;4954572;29;20043;-48
2023/07/10 11:52:14;;;;;;;6.40;1.65;;;24.80;1.00;;;;;;4954537;28;20419;-49
2023/07/10 11:54:46;;;;;;;3.10;0.85;;;24.80;1.00;;;;;;4954734;29;20035;-50
2023/07/10 11:57:20;;;;;;;4.38;1.38;;;24.80;1.00;;;;;;4954631;29;20051;-48
2023/07/10 11:59:51;;;;;;;5.45;1.83;;;24.80;1.00;;;;;;4954561;28;20036;-48
2023/07/10 12:02:36;;;;;;;3.28;0.90;;;24.80;1.00;;;;;;4954531;28;20125;-50
2023/07/10 12:05:17;;;;;;;4.57;1.05;;;24.80;1.00;;;;;;4954229;29;20047;-51
2023/07/10 12:08:01;;;;;;;3.72;1.02;;;24.80;1.00;;;;;;4927346;29;20048;-54
2023/07/10 12:10:41;;;;;;;7.40;1.08;;;24.80;1.00;;;;;;4935391;29;20569;-48
2023/07/10 12:13:30;;;;;;;4.88;1.10;;;24.70;1.00;;;;;;4935148;29;20032;-50
2023/07/10 12:16:10;;;;;;;4.85;1.00;;;24.70;1.00;;;;;;4935039;29;20042;-55
2023/07/10 12:18:39;;;;;;;4.45;1.27;;;24.70;1.00;;;;;;4934940;29;20043;-52
2023/07/10 12:21:12;;;;;;;2.53;0.95;;;24.70;1.00;;;;;;4935020;29;20047;-52
2023/07/10 12:23:50;;;;;;;;;;;24.70;1.00;;;;;;4935190;29;20094;-52
2023/07/10 12:26:17;;;;;;;4.22;1.38;;;24.80;1.00;;;;;;4934763;29;20387;-51
2023/07/10 12:29:13;;;;;;;4.53;0.88;;;24.70;1.00;;;;;;4935011;29;20091;-52
2023/07/10 12:31:41;;;;;;;3.45;1.80;;;24.70;1.00;;;;;;4934689;29;20044;-51
2023/07/10 12:34:24;;;;;;;4.70;1.83;;;24.70;1.00;;;;;;4934573;29;20035;-49
2023/07/10 12:36:53;;;;;;;3.13;0.88;;;24.70;1.00;;;;;;4934949;29;20377;-50
2023/07/10 12:39:22;;;;;;;4.93;0.90;;;24.70;1.00;;;;;;4934667;29;20043;-50
2023/07/10 12:41:52;;;;;;;2.22;0.82;;;24.70;1.00;;;;;;4933033;29;20051;-55
2023/07/10 12:44:25;;;;;;;5.10;1.30;;;24.70;1.00;;;;;;4934853;29;20457;-52
2023/07/10 12:46:57;;;;;;;4.78;1.08;;;24.70;1.00;;;;;;4934490;29;20032;-50
2023/07/10 12:49:28;;;;;;;4.10;1.27;;;24.70;1.00;;;;;;4934734;29;20078;-51
2023/07/10 12:51:59;;;;;;;9.02;0.85;;;24.70;1.00;;;;;;4934455;29;20115;-50
2023/07/10 12:54:38;;;;;;;4.90;0.80;;;24.70;1.00;;;;;;4934739;29;20439;-50
2023/07/10 12:57:22;;;;;;;6.25;0.88;;;24.70;1.00;;;;;;4934295;29;20068;-49
2023/07/10 12:59:56;;;;;;;2.42;0.98;;;24.70;1.00;;;;;;4934477;29;20091;-53
2023/07/10 13:02:28;;;;;;;4.35;1.05;;;24.70;1.00;;;;;;4934201;29;20040;-49
2023/07/10 13:05:02;;;;;;;5.43;1.02;;;24.70;1.00;;;;;;4934487;29;20126;-50
2023/07/10 13:07:40;;;;;;;4.57;1.42;;;24.70;1.00;;;;;;4934349;29;20043;-54
2023/07/10 13:10:43;;;;;;;4.40;1.15;;;24.70;1.00;;;;;;4934585;29;20046;-50
2023/07/10 13:13:19;;;;;;;3.60;1.63;;;24.70;1.00;;;;;;4934383;29;20404;-49
2023/07/10 13:15:47;;;;;;;4.93;1.90;;;24.70;1.00;;;;;;4934472;29;20409;-53
2023/07/10 13:18:29;;;;;;;3.25;0.88;;;24.70;1.00;;;;;;4934337;29;20047;-52
2023/07/10 13:20:56;;;;;;;4.00;1.17;;;24.70;1.00;;;;;;4934197;29;20040;-54